createdAt,value
2023-10-19T00:01:11.364Z,8.52
2023-10-19T00:03:38.488Z,11.30
2023-10-19T00:06:06.403Z,13.32
2023-10-19T00:08:45.171Z,9.25
2023-10-19T00:11:22.582Z,10.88
2023-10-19T00:13:55.066Z,13.32
2023-10-19T00:16:29.991Z,9.25
2023-10-19T00:19:00.435Z,13.70
2023-10-19T00:21:29.525Z,10.15
2023-10-19T00:23:58.739Z,13.13
2023-10-19T00:26:26.793Z,11.25
2023-10-19T00:28:56.716Z,10.88
2023-10-19T00:31:24.297Z,10.73
2023-10-19T00:33:55.518Z,10.65
2023-10-19T00:36:23.529Z,11.73
2023-10-19T00:38:51.632Z,10.18
2023-10-19T00:41:30.304Z,11.05
2023-10-19T00:44:13.108Z,10.75
2023-10-19T00:46:43.224Z,11.18
2023-10-19T00:49:14.729Z,11.25
2023-10-19T00:51:55.066Z,9.82
2023-10-19T00:54:34.559Z,10.85
2023-10-19T00:57:11.636Z,10.63
2023-10-19T01:00:01.126Z,11.13
2023-10-19T01:02:27.586Z,10.68
2023-10-19T01:05:02.212Z,11.57
2023-10-19T01:07:30.352Z,10.07
2023-10-19T01:10:00.266Z,10.75
2023-10-19T01:12:33.973Z,11.00
2023-10-19T01:15:08.804Z,11.50
2023-10-19T01:17:40.219Z,11.55
2023-10-19T01:20:18.528Z,11.90
2023-10-19T01:23:15.545Z,9.30
2023-10-19T01:25:55.122Z,13.82
2023-10-19T01:28:39.783Z,10.98
2023-10-19T01:31:08.830Z,11.63
2023-10-19T01:33:36.028Z,10.50
2023-10-19T01:36:12.814Z,10.23
2023-10-19T01:38:40.068Z,13.93
2023-10-19T01:41:14.406Z,12.25
2023-10-19T01:43:44.903Z,10.73
2023-10-19T01:46:13.244Z,9.93
2023-10-19T01:48:44.761Z,11.30
2023-10-19T01:51:13.582Z,12.25
2023-10-19T01:53:41.020Z,9.35
2023-10-19T01:56:10.695Z,10.27
2023-10-19T01:58:38.326Z,10.55
2023-10-19T02:01:14.605Z,12.02
2023-10-19T02:03:44.606Z,8.52
2023-10-19T02:06:19.031Z,12.13
2023-10-19T02:08:57.552Z,10.43
2023-10-19T02:11:25.331Z,9.15
2023-10-19T02:13:55.303Z,9.73
2023-10-19T02:16:26.616Z,11.07
2023-10-19T02:18:53.250Z,9.25
2023-10-19T02:21:33.611Z,8.35
2023-10-19T02:24:00.264Z,10.00
2023-10-19T02:26:31.769Z,8.02
2023-10-19T02:28:59.415Z,7.88
2023-10-19T02:31:26.690Z,9.10
2023-10-19T02:34:01.126Z,9.13
2023-10-19T02:36:31.794Z,8.48
2023-10-19T02:39:09.123Z,10.98
2023-10-19T02:41:47.855Z,8.65
2023-10-19T02:44:19.329Z,8.25
2023-10-19T02:46:47.179Z,7.40
2023-10-19T02:49:15.819Z,8.52
2023-10-19T02:51:46.414Z,9.45
2023-10-19T02:54:21.553Z,8.43
2023-10-19T02:56:50.577Z,7.40
2023-10-19T02:59:17.874Z,8.05
2023-10-19T03:01:47.666Z,8.25
2023-10-19T03:04:14.104Z,7.13
2023-10-19T03:06:42.021Z,7.18
2023-10-19T03:09:30.923Z,8.35
2023-10-19T03:12:01.400Z,6.85
2023-10-19T03:14:28.352Z,7.70
2023-10-19T03:16:58.589Z,7.70
2023-10-19T03:19:26.519Z,6.30
2023-10-19T03:21:53.588Z,7.07
2023-10-19T03:24:41.865Z,6.25
2023-10-19T03:27:22.940Z,6.93
2023-10-19T03:29:56.989Z,7.38
2023-10-19T03:32:28.270Z,7.10
2023-10-19T03:35:01.317Z,7.43
2023-10-19T03:37:31.989Z,7.13
2023-10-19T03:39:59.404Z,7.18
2023-10-19T03:42:33.393Z,7.38
2023-10-19T03:45:03.209Z,6.10
2023-10-19T03:47:36.443Z,6.18
2023-10-19T03:50:07.854Z,7.63
2023-10-19T03:52:40.642Z,7.13
2023-10-19T03:55:12.474Z,8.32
2023-10-19T03:57:43.157Z,8.52
2023-10-19T04:00:16.738Z,8.60
2023-10-19T04:02:43.863Z,6.60
2023-10-19T04:05:15.476Z,8.10
2023-10-19T04:07:44.907Z,6.65
2023-10-19T04:10:30.650Z,8.60
2023-10-19T04:13:00.845Z,7.10
2023-10-19T04:15:27.924Z,6.80
2023-10-19T04:17:56.332Z,6.80
2023-10-19T04:20:23.239Z,8.60
2023-10-19T04:22:51.990Z,8.82
2023-10-19T04:25:30.554Z,8.20
2023-10-19T04:27:58.540Z,6.72
2023-10-19T04:30:28.500Z,8.70
2023-10-19T04:32:58.703Z,8.93
2023-10-19T04:35:25.570Z,8.02
2023-10-19T04:37:53.699Z,9.30
2023-10-19T04:40:22.273Z,8.60
2023-10-19T04:42:52.233Z,9.30
2023-10-19T04:45:19.056Z,8.52
2023-10-19T04:47:45.607Z,9.07
2023-10-19T04:50:12.151Z,8.10
2023-10-19T04:52:39.875Z,8.43
2023-10-19T04:55:06.798Z,10.05
2023-10-19T04:57:33.362Z,10.38
2023-10-19T04:59:59.716Z,8.70
2023-10-19T05:02:26.245Z,8.45
2023-10-19T05:04:52.712Z,8.63
2023-10-19T05:07:19.212Z,9.30
2023-10-19T05:09:46.602Z,8.23
2023-10-19T05:12:15.474Z,8.90
2023-10-19T05:14:43.136Z,8.60
2023-10-19T05:17:10.393Z,9.60
2023-10-19T05:19:38.699Z,8.18
2023-10-19T05:22:07.637Z,8.52
2023-10-19T05:24:34.134Z,8.52
2023-10-19T05:27:00.698Z,8.68
2023-10-19T05:29:27.247Z,7.50
2023-10-19T05:31:59.172Z,8.32
2023-10-19T05:34:27.888Z,8.77
2023-10-19T05:36:55.256Z,8.65
2023-10-19T05:39:21.988Z,10.90
2023-10-19T05:41:48.406Z,8.18
2023-10-19T05:44:14.793Z,8.95
2023-10-19T05:46:42.301Z,9.52
2023-10-19T05:49:09.131Z,8.48
2023-10-19T05:51:35.611Z,10.05
2023-10-19T05:54:04.816Z,8.00
2023-10-19T05:56:32.365Z,8.48
2023-10-19T05:58:59.314Z,10.48
2023-10-19T06:01:26.026Z,8.55
2023-10-19T06:03:53.099Z,7.32
2023-10-19T06:06:23.566Z,9.90
2023-10-19T06:08:54.507Z,9.57
2023-10-19T06:11:22.386Z,10.27
2023-10-19T06:13:49.065Z,7.30
2023-10-19T06:16:15.695Z,8.00
2023-10-19T06:18:44.428Z,10.32
2023-10-19T06:21:11.198Z,7.45
2023-10-19T06:23:38.113Z,9.48
2023-10-19T06:26:12.966Z,8.25
2023-10-19T06:28:41.888Z,10.98
2023-10-19T06:31:08.520Z,12.65
2023-10-19T06:33:35.155Z,10.93
2023-10-19T06:36:04.216Z,18.85
2023-10-19T06:38:32.459Z,22.60
2023-10-19T06:40:59.938Z,14.57
2023-10-19T06:43:31.077Z,10.80
2023-10-19T06:46:01.480Z,8.95
2023-10-19T06:48:27.992Z,10.05
2023-10-19T06:50:54.357Z,7.43
2023-10-19T06:53:20.769Z,20.35
2023-10-19T06:55:47.273Z,19.42
2023-10-19T06:58:15.678Z,12.82
2023-10-19T07:00:48.073Z,14.25
2023-10-19T07:03:14.856Z,12.63
2023-10-19T07:05:41.371Z,9.40
2023-10-19T07:08:08.157Z,9.52
2023-10-19T07:10:35.925Z,20.25
2023-10-19T07:13:03.045Z,10.80
2023-10-19T07:15:31.090Z,13.77
2023-10-19T07:17:57.940Z,12.18
2023-10-19T07:20:32.786Z,8.98
2023-10-19T07:23:04.571Z,10.50
2023-10-19T07:25:32.376Z,9.85
2023-10-19T07:28:00.992Z,6.90
2023-10-19T07:30:27.881Z,7.00
2023-10-19T07:33:00.044Z,7.50
2023-10-19T07:35:28.128Z,8.13
2023-10-19T07:37:56.601Z,6.75
2023-10-19T07:40:24.959Z,7.63
2023-10-19T07:42:55.099Z,5.55
2023-10-19T07:45:22.636Z,7.30
2023-10-19T07:47:49.187Z,5.97
2023-10-19T07:50:18.705Z,5.85
2023-10-19T07:52:48.285Z,8.63
2023-10-19T07:55:15.170Z,6.03
2023-10-19T07:57:45.172Z,8.18
2023-10-19T08:00:15.147Z,5.95
2023-10-19T08:02:46.877Z,6.05
2023-10-19T08:05:19.555Z,7.47
2023-10-19T08:07:48.205Z,11.50
2023-10-19T08:10:16.807Z,12.02
2023-10-19T08:12:44.885Z,6.60
2023-10-19T08:15:12.662Z,6.93
2023-10-19T08:17:40.668Z,10.50
2023-10-19T08:20:17.246Z,16.30
2023-10-19T08:22:49.630Z,7.25
2023-10-19T08:25:16.241Z,8.23
2023-10-19T08:27:45.959Z,15.60
2023-10-19T08:30:14.215Z,10.80
2023-10-19T08:32:42.806Z,6.28
2023-10-19T08:35:12.956Z,6.88
2023-10-19T08:37:43.231Z,7.00
2023-10-19T08:40:16.637Z,6.47
2023-10-19T08:42:44.097Z,6.95
2023-10-19T08:45:13.772Z,5.15
2023-10-19T08:47:58.322Z,6.45
2023-10-19T08:50:26.168Z,6.10
2023-10-19T08:52:58.014Z,8.95
2023-10-19T08:55:37.390Z,6.45
2023-10-19T08:58:11.439Z,6.93
2023-10-19T09:00:49.658Z,5.82
2023-10-19T09:03:18.278Z,8.00
2023-10-19T09:05:47.361Z,6.70
2023-10-19T09:08:19.009Z,6.55
2023-10-19T09:10:47.329Z,11.45
2023-10-19T09:13:15.694Z,8.77
2023-10-19T09:15:42.824Z,7.70
2023-10-19T09:18:19.592Z,6.68
2023-10-19T09:20:54.050Z,5.68
2023-10-19T09:23:26.135Z,6.00
2023-10-19T09:25:56.758Z,10.05
2023-10-19T09:28:25.000Z,6.50
2023-10-19T09:30:52.767Z,7.32
2023-10-19T09:33:19.395Z,7.38
2023-10-19T09:35:49.269Z,5.22
2023-10-19T09:38:17.194Z,4.50
2023-10-19T09:40:44.202Z,4.53
2023-10-19T09:43:17.375Z,5.88
2023-10-19T09:45:52.060Z,5.35
2023-10-19T09:48:20.474Z,5.15
2023-10-19T09:50:55.980Z,6.45
2023-10-19T09:53:26.408Z,9.63
2023-10-19T09:55:56.875Z,5.55
2023-10-19T09:58:27.074Z,5.63
2023-10-19T10:00:53.553Z,6.05
2023-10-19T10:03:45.521Z,7.45
2023-10-19T10:06:15.211Z,5.28
2023-10-19T10:08:46.223Z,5.55
2023-10-19T10:11:25.153Z,6.95
2023-10-19T10:13:52.585Z,7.82
2023-10-19T10:16:30.205Z,6.15
2023-10-19T10:19:01.272Z,7.22
2023-10-19T10:21:31.502Z,4.82
2023-10-19T10:24:00.507Z,5.53
2023-10-19T10:26:36.390Z,5.65
2023-10-19T10:31:47.064Z,6.40
2023-10-19T10:34:39.260Z,5.55
2023-10-19T10:37:09.109Z,5.40
2023-10-19T10:39:39.683Z,8.38
2023-10-19T10:42:08.345Z,3.80
2023-10-19T10:44:48.329Z,4.95
2023-10-19T10:47:25.579Z,4.13
2023-10-19T10:49:57.899Z,4.38
2023-10-19T10:52:35.106Z,4.28
2023-10-19T10:55:12.734Z,5.78
2023-10-19T10:57:40.653Z,3.85
2023-10-19T11:00:17.301Z,3.40
2023-10-19T11:02:46.931Z,12.38
2023-10-19T11:05:14.984Z,4.05
2023-10-19T11:08:02.545Z,5.47
2023-10-19T11:10:30.416Z,9.30
2023-10-19T11:13:14.338Z,9.70
2023-10-19T11:15:50.042Z,3.50
2023-10-19T11:18:36.907Z,4.00
2023-10-19T11:21:08.095Z,5.47
2023-10-19T11:23:42.515Z,7.18
2023-10-19T11:26:11.516Z,5.60
2023-10-19T11:28:44.102Z,5.57
2023-10-19T11:31:24.800Z,5.93
2023-10-19T11:33:53.775Z,4.85
2023-10-19T11:36:23.147Z,5.50
2023-10-19T11:38:52.733Z,6.32
2023-10-19T11:41:19.515Z,3.70
2023-10-19T11:43:47.387Z,7.35
2023-10-19T11:46:15.750Z,4.82
2023-10-19T11:48:43.981Z,4.55
2023-10-19T11:51:12.032Z,4.85
2023-10-19T11:53:39.704Z,3.58
2023-10-19T11:56:08.267Z,5.50
2023-10-19T11:58:35.929Z,5.30
2023-10-19T12:01:17.778Z,5.95
2023-10-19T12:03:46.792Z,7.15
2023-10-19T12:06:19.898Z,5.53
2023-10-19T12:08:48.024Z,5.13
2023-10-19T12:11:20.609Z,5.68
2023-10-19T12:13:48.488Z,5.28
2023-10-19T12:16:21.059Z,5.68
2023-10-19T12:18:49.816Z,4.00
2023-10-19T12:21:18.796Z,4.63
2023-10-19T12:23:45.656Z,7.22
2023-10-19T12:26:12.354Z,4.15
2023-10-19T12:28:39.621Z,5.95
2023-10-19T12:31:10.074Z,5.55
2023-10-19T12:33:37.600Z,6.90
2023-10-19T12:36:23.024Z,4.32
2023-10-19T12:38:50.659Z,3.20
2023-10-19T12:41:18.341Z,4.63
2023-10-19T12:43:44.922Z,5.90
2023-10-19T12:46:13.178Z,2.75
2023-10-19T12:48:39.609Z,6.13
2023-10-19T12:51:10.159Z,4.15
2023-10-19T12:53:38.212Z,4.43
2023-10-19T12:56:04.791Z,3.38
2023-10-19T12:58:33.033Z,3.65
2023-10-19T13:00:59.595Z,5.03
2023-10-19T13:03:32.783Z,10.23
2023-10-19T13:05:59.427Z,3.15
2023-10-19T13:08:28.559Z,4.75
2023-10-19T13:11:01.539Z,5.60
2023-10-19T13:13:31.434Z,6.72
2023-10-19T13:15:58.136Z,4.13
2023-10-19T13:18:30.665Z,4.45
2023-10-19T13:20:58.022Z,3.83
2023-10-19T13:23:24.548Z,5.95
2023-10-19T13:25:51.827Z,5.18
2023-10-19T13:28:19.776Z,2.17
2023-10-19T13:30:56.674Z,7.32
2023-10-19T13:33:23.442Z,5.43
2023-10-19T13:35:50.004Z,4.43
2023-10-19T13:38:18.651Z,6.60
2023-10-19T13:40:47.785Z,4.75
2023-10-19T13:43:15.276Z,6.07
2023-10-19T13:45:46.044Z,4.43
2023-10-19T13:48:14.002Z,3.85
2023-10-19T13:50:51.000Z,6.03
2023-10-19T13:53:17.856Z,5.43
2023-10-19T13:55:45.344Z,3.78
2023-10-19T13:58:12.284Z,4.72
2023-10-19T14:00:42.003Z,5.15
2023-10-19T14:03:10.191Z,5.32
2023-10-19T14:05:41.067Z,4.25
2023-10-19T14:08:08.047Z,4.47
2023-10-19T14:10:35.918Z,4.25
2023-10-19T14:13:03.485Z,4.13
2023-10-19T14:15:30.023Z,4.32
2023-10-19T14:17:59.335Z,4.55
2023-10-19T14:20:26.215Z,5.47
2023-10-19T14:22:54.784Z,5.57
2023-10-19T14:25:25.645Z,4.38
2023-10-19T14:27:55.724Z,4.28
2023-10-19T14:30:26.671Z,3.92
2023-10-19T14:32:53.230Z,4.60
2023-10-19T14:35:21.357Z,4.18
2023-10-19T14:37:50.254Z,4.85
2023-10-19T14:40:22.041Z,5.70
2023-10-19T14:42:49.464Z,6.00
2023-10-19T14:45:17.986Z,4.97
2023-10-19T14:47:52.669Z,4.53
2023-10-19T14:50:20.443Z,5.82
2023-10-19T14:52:49.814Z,5.60
2023-10-19T14:55:16.902Z,8.40
2023-10-19T14:57:54.650Z,3.58
2023-10-19T15:00:35.023Z,3.45
2023-10-19T15:03:08.524Z,4.78
2023-10-19T15:05:38.912Z,4.93
2023-10-19T15:08:06.653Z,4.05
2023-10-19T15:10:33.651Z,4.72
2023-10-19T15:13:00.558Z,3.90
2023-10-19T15:15:28.162Z,3.08
2023-10-19T15:17:55.206Z,6.40
2023-10-19T15:20:26.208Z,4.88
2023-10-19T15:22:52.856Z,4.57
2023-10-19T15:25:21.236Z,6.40
2023-10-19T15:27:51.743Z,4.35
2023-10-19T15:30:21.203Z,7.60
2023-10-19T15:32:48.987Z,6.53
2023-10-19T15:35:17.332Z,6.47
2023-10-19T15:37:49.192Z,7.65
2023-10-19T15:40:17.439Z,5.75
2023-10-19T15:42:44.594Z,5.60
2023-10-19T15:45:15.131Z,7.85
2023-10-19T15:47:41.902Z,6.13
2023-10-19T15:50:09.568Z,6.38
2023-10-19T15:52:41.594Z,7.13
2023-10-19T15:55:08.342Z,6.85
2023-10-19T15:57:34.802Z,6.18
2023-10-19T16:00:01.318Z,6.88
2023-10-19T16:02:27.854Z,7.75
2023-10-19T16:04:54.418Z,7.20
2023-10-19T16:07:20.911Z,8.95
2023-10-19T16:09:47.337Z,8.02
2023-10-19T16:12:14.717Z,7.90
2023-10-19T16:14:41.435Z,7.63
2023-10-19T16:17:10.007Z,12.00
2023-10-19T16:19:36.677Z,8.35
2023-10-19T16:22:03.237Z,8.68
2023-10-19T16:24:30.346Z,10.05
2023-10-19T16:26:59.790Z,7.72
2023-10-19T16:29:27.277Z,8.88
2023-10-19T16:31:59.369Z,9.80
2023-10-19T16:34:26.337Z,10.18
2023-10-19T16:36:52.832Z,9.10
2023-10-19T16:39:19.297Z,8.50
2023-10-19T16:41:47.244Z,10.00
2023-10-19T16:44:13.950Z,10.10
2023-10-19T16:46:40.763Z,8.35
2023-10-19T16:49:07.321Z,11.35
2023-10-19T16:51:37.108Z,12.63
2023-10-19T16:54:04.701Z,12.07
2023-10-19T16:56:31.172Z,14.98
2023-10-19T16:58:57.602Z,12.70
2023-10-19T17:01:24.222Z,13.80
2023-10-19T17:03:50.730Z,14.55
2023-10-19T17:06:17.766Z,13.48
2023-10-19T17:08:45.783Z,15.18
2023-10-19T17:11:12.907Z,15.13
2023-10-19T17:13:40.284Z,15.73
2023-10-19T17:16:07.026Z,15.88
2023-10-19T17:18:34.967Z,16.25
2023-10-19T17:21:03.449Z,17.50
2023-10-19T17:23:30.171Z,15.82
2023-10-19T17:25:56.771Z,16.77
2023-10-19T17:28:23.152Z,18.70
2023-10-19T17:30:52.273Z,15.55
2023-10-19T17:33:19.338Z,15.60
2023-10-19T17:35:46.067Z,15.27
2023-10-19T17:38:13.953Z,15.02
2023-10-19T17:40:40.753Z,14.60
2023-10-19T17:43:10.489Z,16.00
2023-10-19T17:45:37.681Z,16.55
2023-10-19T17:48:05.122Z,15.18
2023-10-19T17:50:32.780Z,13.48
2023-10-19T17:53:01.782Z,15.07
2023-10-19T17:55:28.467Z,14.98
2023-10-19T17:57:55.059Z,17.08
2023-10-19T18:00:21.661Z,14.32
2023-10-19T18:02:49.107Z,20.30
2023-10-19T18:05:15.955Z,14.43
2023-10-19T18:07:42.682Z,16.08
2023-10-19T18:10:09.731Z,16.08
2023-10-19T18:12:39.173Z,17.20
2023-10-19T18:15:09.147Z,17.08
2023-10-19T18:17:36.579Z,17.00
2023-10-19T18:20:08.908Z,17.38
2023-10-19T18:22:38.832Z,15.57
2023-10-19T18:25:06.093Z,16.67
2023-10-19T18:27:32.546Z,14.13
2023-10-19T18:30:00.044Z,14.98
2023-10-19T18:32:27.211Z,16.25
2023-10-19T18:34:53.710Z,15.02
2023-10-19T18:37:20.310Z,17.70
2023-10-19T18:39:46.821Z,16.33
2023-10-19T18:42:13.637Z,16.85
2023-10-19T18:44:40.074Z,14.35
2023-10-19T18:47:06.546Z,22.67
2023-10-19T18:49:33.234Z,16.38
2023-10-19T18:51:59.712Z,18.27
2023-10-19T18:54:26.902Z,18.23
2023-10-19T18:56:53.369Z,18.13
2023-10-19T18:59:19.851Z,19.10
2023-10-19T19:01:46.587Z,19.38
2023-10-19T19:04:12.956Z,17.88
2023-10-19T19:06:40.050Z,20.38
2023-10-19T19:09:06.501Z,20.75
2023-10-19T19:11:32.940Z,19.33
2023-10-19T19:13:59.400Z,20.10
2023-10-19T19:16:26.831Z,20.25
2023-10-19T19:18:53.257Z,18.67
2023-10-19T19:21:20.259Z,22.83
2023-10-19T19:23:47.910Z,20.45
2023-10-19T19:26:15.218Z,22.88
2023-10-19T19:28:44.229Z,23.15
2023-10-19T19:31:19.470Z,18.27
2023-10-19T19:33:49.533Z,21.27
2023-10-19T19:36:18.951Z,23.02
2023-10-19T19:38:46.573Z,21.23
2023-10-19T19:41:16.752Z,18.60
2023-10-19T19:43:44.379Z,21.83
2023-10-19T19:46:10.884Z,21.80
2023-10-19T19:48:37.503Z,20.33
2023-10-19T19:51:05.331Z,18.95
2023-10-19T19:53:32.017Z,19.98
2023-10-19T19:55:59.330Z,22.38
2023-10-19T19:58:26.590Z,21.42
2023-10-19T20:00:53.008Z,22.33
2023-10-19T20:03:19.530Z,23.50
2023-10-19T20:05:46.117Z,23.60
2023-10-19T20:08:12.795Z,21.67
2023-10-19T20:10:44.565Z,24.40
2023-10-19T20:13:15.466Z,24.08
2023-10-19T20:15:42.777Z,25.13
2023-10-19T20:18:10.187Z,25.08
2023-10-19T20:20:36.789Z,26.65
2023-10-19T20:23:03.469Z,26.70
2023-10-19T20:25:30.226Z,28.67
2023-10-19T20:27:58.124Z,21.90
2023-10-19T20:30:25.445Z,28.88
2023-10-19T20:32:53.225Z,24.02
2023-10-19T20:35:21.793Z,22.63
2023-10-19T20:37:49.235Z,25.17
2023-10-19T20:40:22.459Z,21.63
2023-10-19T20:42:55.396Z,24.67
2023-10-19T20:45:23.368Z,22.05
2023-10-19T20:47:52.921Z,24.13
2023-10-19T20:50:23.350Z,24.33
2023-10-19T20:52:55.545Z,25.67
2023-10-19T20:55:21.969Z,23.30
2023-10-19T20:57:48.740Z,25.55
2023-10-19T21:00:15.564Z,27.75
2023-10-19T21:02:42.925Z,27.00
2023-10-19T21:05:13.517Z,28.23
2023-10-19T21:07:40.205Z,31.23
2023-10-19T21:10:13.102Z,29.10
2023-10-19T21:12:40.579Z,29.83
2023-10-19T21:15:13.867Z,26.40
2023-10-19T21:17:49.393Z,30.88
2023-10-19T21:20:17.118Z,27.40
2023-10-19T21:22:44.806Z,28.23
2023-10-19T21:25:17.274Z,25.67
2023-10-19T21:27:45.237Z,27.08
2023-10-19T21:30:14.324Z,27.70
2023-10-19T21:32:42.920Z,29.00
2023-10-19T21:35:10.571Z,28.15
2023-10-19T21:37:37.546Z,25.38
2023-10-19T21:40:05.635Z,29.90
2023-10-19T21:42:32.836Z,27.88
2023-10-19T21:44:59.285Z,28.90
2023-10-19T21:47:27.012Z,29.25
2023-10-19T21:49:53.846Z,26.70
2023-10-19T21:52:24.890Z,28.55
2023-10-19T21:54:52.084Z,30.05
2023-10-19T21:57:19.095Z,29.55
2023-10-19T21:59:46.266Z,29.50
2023-10-19T22:02:12.965Z,30.52
2023-10-19T22:04:40.818Z,32.13
2023-10-19T22:07:07.459Z,32.42
2023-10-19T22:09:34.586Z,29.50
2023-10-19T22:12:01.654Z,33.60
2023-10-19T22:14:29.398Z,31.50
2023-10-19T22:16:56.860Z,31.40
2023-10-19T22:19:27.874Z,30.95
2023-10-19T22:21:57.116Z,30.38
2023-10-19T22:24:23.556Z,31.33
2023-10-19T22:26:56.521Z,33.45
2023-10-19T22:29:23.167Z,38.78
2023-10-19T22:31:52.816Z,31.63
2023-10-19T22:34:19.854Z,33.55
2023-10-19T22:36:46.405Z,33.55
2023-10-19T22:39:13.564Z,35.53
2023-10-19T22:41:40.027Z,34.05
2023-10-19T22:44:08.186Z,32.65
2023-10-19T22:46:39.769Z,33.60
2023-10-19T22:49:06.706Z,33.63
2023-10-19T22:51:33.183Z,35.15
2023-10-19T22:53:59.934Z,33.80
2023-10-19T22:56:26.411Z,33.10
2023-10-19T22:58:54.148Z,36.55
2023-10-19T23:01:21.130Z,35.28
2023-10-19T23:03:47.881Z,33.88
2023-10-19T23:06:15.223Z,31.17
2023-10-19T23:08:42.150Z,33.83
2023-10-19T23:11:10.331Z,35.22
2023-10-19T23:13:39.285Z,34.65
2023-10-19T23:16:07.028Z,36.15
2023-10-19T23:18:36.975Z,33.75
2023-10-19T23:21:04.970Z,34.17
2023-10-19T23:23:32.330Z,33.55
2023-10-19T23:26:01.814Z,33.95
2023-10-19T23:28:31.844Z,33.30
2023-10-19T23:31:06.085Z,37.90
2023-10-19T23:33:33.516Z,35.97
2023-10-19T23:36:00.758Z,34.88
2023-10-19T23:38:27.629Z,33.58
2023-10-19T23:40:54.318Z,32.28
2023-10-19T23:43:21.255Z,32.20
2023-10-19T23:45:48.623Z,34.10
2023-10-19T23:48:19.397Z,37.50
2023-10-19T23:50:45.805Z,32.50
2023-10-19T23:53:12.354Z,34.38
2023-10-19T23:55:41.608Z,33.70
2023-10-19T23:58:08.135Z,32.90
